Time;durP1;ratioP1;P1;durP2;ratioP2;P2;SDS_P1;SDS_P2;PMS_P1;PMS_P2;Temp;Humidity;BMP_temperature;BMP_pressure;BME280_temperature;BME280_humidity;BME280_pressure;Samples;Min_cycle;Max_cycle;Signal;HPM_P1;HPM_P2
2022/05/20 00:00:49;;;;;;;1.97;1.60;;;18.70;98.00;;;;;;5050678;28;20898;-65
2022/05/20 00:03:16;;;;;;;3.10;1.97;;;18.60;98.00;;;;;;5050774;28;20458;-65
2022/05/20 00:05:44;;;;;;;2.00;1.77;;;18.60;98.00;;;;;;5050781;28;20461;-65
2022/05/20 00:08:12;;;;;;;2.80;1.93;;;18.50;98.00;;;;;;5050648;28;20461;-65
2022/05/20 00:10:39;;;;;;;1.77;1.63;;;18.50;98.00;;;;;;5050035;28;20472;-66
2022/05/20 00:13:07;;;;;;;3.50;2.20;;;18.60;98.00;;;;;;5050639;28;21001;-66
2022/05/20 00:15:35;;;;;;;2.40;1.87;;;18.60;98.00;;;;;;5050587;28;20557;-65
2022/05/20 00:18:02;;;;;;;2.07;1.80;;;18.60;98.00;;;;;;5050552;28;20457;-65
2022/05/20 00:20:30;;;;;;;3.27;2.27;;;18.50;98.00;;;;;;5050660;28;20484;-65
2022/05/20 00:22:58;;;;;;;3.43;2.27;;;18.60;98.00;;;;;;5032668;28;20465;-65
2022/05/20 00:28:11;;;;;;;2.63;1.87;;;18.40;98.00;;;;;;5050545;28;20481;-65
2022/05/20 00:30:38;;;;;;;2.60;2.07;;;18.30;98.00;;;;;;5053178;28;20823;-65
2022/05/20 00:33:06;;;;;;;4.43;2.00;;;18.30;98.00;;;;;;5054466;28;20468;-65
2022/05/20 00:35:35;;;;;;;3.33;2.20;;;18.30;98.00;;;;;;5054853;28;20468;-65
2022/05/20 00:38:02;;;;;;;2.43;2.00;;;18.30;98.00;;;;;;5054237;28;20599;-65
2022/05/20 00:40:31;;;;;;;2.00;1.80;;;18.30;98.00;;;;;;5054298;28;20481;-65
2022/05/20 00:43:22;;;;;;;2.63;1.70;;;18.20;98.00;;;;;;5054159;28;20971;-65
2022/05/20 00:45:49;;;;;;;1.90;1.53;;;18.10;98.00;;;;;;5054087;28;20461;-65
2022/05/20 00:48:16;;;;;;;3.00;2.10;;;18.10;98.00;;;;;;5036148;28;20469;-65
2022/05/20 00:50:47;;;;;;;2.13;1.80;;;18.00;98.00;;;;;;5053951;28;20516;-65
2022/05/20 00:53:20;;;;;;;4.37;2.33;;;17.90;98.00;;;;;;5036677;28;20496;-65
2022/05/20 00:55:49;;;;;;;1.93;1.70;;;17.90;98.00;;;;;;5053660;28;20744;-65
2022/05/20 00:58:19;;;;;;;2.37;1.87;;;17.80;98.00;;;;;;5053369;28;20449;-65
2022/05/20 01:00:50;;;;;;;2.30;1.80;;;17.90;98.00;;;;;;5053641;28;20485;-65
2022/05/20 01:03:20;;;;;;;2.57;2.37;;;18.20;98.00;;;;;;5053580;28;20480;-65
2022/05/20 01:05:49;;;;;;;2.73;2.00;;;18.30;98.00;;;;;;5053748;28;20959;-65
2022/05/20 01:08:20;;;;;;;3.40;1.83;;;18.30;98.00;;;;;;5053386;28;20543;-65
2022/05/20 01:10:50;;;;;;;2.70;1.80;;;18.20;98.00;;;;;;5053438;28;20458;-65
2022/05/20 01:13:19;;;;;;;3.40;2.10;;;18.10;98.00;;;;;;5053076;28;20532;-65
2022/05/20 01:15:48;;;;;;;1.90;1.80;;;17.90;98.00;;;;;;5053557;28;20454;-65
2022/05/20 01:18:16;;;;;;;3.30;1.90;;;17.80;98.00;;;;;;5053138;28;20891;-65
2022/05/20 01:20:46;;;;;;;3.40;1.77;;;17.70;98.00;;;;;;5053132;28;20565;-65
2022/05/20 01:23:17;;;;;;;3.60;2.03;;;17.70;98.00;;;;;;5053539;28;20880;-66
2022/05/20 01:25:47;;;;;;;1.60;1.47;;;17.70;98.00;;;;;;5053077;28;20461;-65
2022/05/20 01:28:17;;;;;;;5.13;2.10;;;17.70;98.00;;;;;;5053326;28;20976;-65
2022/05/20 01:30:48;;;;;;;3.30;2.30;;;17.70;98.00;;;;;;5053077;28;20566;-65
2022/05/20 01:33:23;;;;;;;3.90;2.37;;;17.50;98.00;;;;;;5053441;28;20476;-65
2022/05/20 01:35:50;;;;;;;1.93;1.53;;;17.40;98.00;;;;;;5053280;28;20519;-64
2022/05/20 01:38:20;;;;;;;2.93;1.73;;;17.50;98.00;;;;;;5035536;28;20951;-65
2022/05/20 01:40:50;;;;;;;2.07;1.90;;;17.50;98.00;;;;;;5052735;28;20529;-65
2022/05/20 01:43:34;;;;;;;2.90;1.93;;;17.60;98.00;;;;;;5052828;28;20454;-64
2022/05/20 01:46:33;;;;;;;1.80;1.67;;;17.50;98.00;;;;;;5053263;28;20457;-65
2022/05/20 01:49:20;;;;;;;2.67;2.10;;;17.40;98.00;;;;;;5052698;28;20487;-65
2022/05/20 01:51:51;;;;;;;4.90;2.10;;;17.30;98.00;;;;;;5053021;28;20830;-65
2022/05/20 01:54:26;;;;;;;3.60;2.40;;;17.40;98.00;;;;;;5052789;28;20688;-65
2022/05/20 01:56:59;;;;;;;2.80;1.83;;;17.50;98.00;;;;;;5053039;28;20460;-65
2022/05/20 01:59:33;;;;;;;2.17;1.60;;;17.40;98.00;;;;;;5415399;22;20526;-66
2022/05/20 02:02:04;;;;;;;6.40;1.90;;;17.40;98.00;;;;;;5032901;28;21058;-65
2022/05/20 02:04:38;;;;;;;2.83;1.90;;;17.40;98.00;;;;;;5032759;28;20532;-65
2022/05/20 02:07:11;;;;;;;2.10;1.40;;;17.30;98.00;;;;;;5032465;28;20463;-66
2022/05/20 02:09:45;;;;;;;2.70;2.13;;;17.30;98.00;;;;;;5032768;28;20481;-66
2022/05/20 02:12:16;;;;;;;3.37;2.10;;;17.20;98.00;;;;;;5032404;28;20481;-65
2022/05/20 02:14:48;;;;;;;3.63;1.80;;;17.10;98.00;;;;;;5032312;28;20463;-65
2022/05/20 02:17:21;;;;;;;1.80;1.53;;;17.10;98.00;;;;;;5032585;28;20824;-65
2022/05/20 02:19:55;;;;;;;2.60;1.83;;;17.20;98.00;;;;;;5032267;28;20454;-65
2022/05/20 02:22:25;;;;;;;2.17;2.00;;;17.10;98.00;;;;;;5032234;28;20459;-66
2022/05/20 02:24:55;;;;;;;3.90;2.30;;;17.20;98.00;;;;;;5032249;28;20517;-65
2022/05/20 02:27:27;;;;;;;2.03;1.67;;;17.20;98.00;;;;;;5032050;28;20462;-65
2022/05/20 02:30:03;;;;;;;2.63;2.20;;;17.20;98.00;;;;;;5032164;28;20466;-65
2022/05/20 02:32:34;;;;;;;2.23;2.10;;;17.10;98.00;;;;;;5032213;28;20470;-66
2022/05/20 02:35:01;;;;;;;1.87;1.83;;;17.00;98.00;;;;;;5032369;28;20481;-65
2022/05/20 02:37:31;;;;;;;3.47;2.23;;;17.10;98.00;;;;;;5032292;28;20965;-65
2022/05/20 02:40:01;;;;;;;2.40;1.97;;;17.10;98.00;;;;;;5032004;28;20450;-66
2022/05/20 02:42:29;;;;;;;3.00;2.13;;;17.20;98.00;;;;;;5031834;28;20961;-66
2022/05/20 02:44:59;;;;;;;3.20;1.93;;;17.20;98.00;;;;;;5032018;28;20556;-65
2022/05/20 02:47:26;;;;;;;2.20;2.00;;;17.20;98.00;;;;;;5031611;28;20451;-65
2022/05/20 02:49:53;;;;;;;3.20;1.90;;;17.20;98.00;;;;;;5031718;28;20462;-65
2022/05/20 02:52:20;;;;;;;1.83;1.80;;;17.10;98.00;;;;;;5031093;28;20454;-65
2022/05/20 02:54:47;;;;;;;2.07;1.93;;;17.00;98.00;;;;;;5031560;28;20455;-65
2022/05/20 02:57:16;;;;;;;2.70;2.17;;;16.80;98.00;;;;;;5031522;28;20754;-65
2022/05/20 03:05:13;;;;;;;3.60;2.30;;;16.90;98.00;;;;;;5031801;28;20434;-65
2022/05/20 03:07:40;;;;;;;2.20;2.00;;;17.10;98.00;;;;;;5031368;28;20535;-65
2022/05/20 03:10:09;;;;;;;2.27;1.80;;;17.10;98.00;;;;;;5031412;28;20949;-66
2022/05/20 03:12:38;;;;;;;2.40;1.70;;;17.10;98.00;;;;;;5031476;28;20485;-65
2022/05/20 03:15:06;;;;;;;4.13;2.00;;;16.90;98.00;;;;;;5031404;28;20450;-65
2022/05/20 03:17:33;;;;;;;2.30;1.80;;;16.70;98.00;;;;;;5014043;28;20455;-65
2022/05/20 03:20:00;;;;;;;2.60;1.97;;;16.70;98.00;;;;;;5031193;28;20466;-65
2022/05/20 03:22:27;;;;;;;2.60;1.90;;;16.60;98.00;;;;;;5031294;28;20463;-65
2022/05/20 03:24:54;;;;;;;2.97;2.20;;;16.70;98.00;;;;;;5031185;28;20477;-65
2022/05/20 03:27:21;;;;;;;1.93;1.60;;;16.70;98.00;;;;;;5031138;28;20458;-66
2022/05/20 03:29:50;;;;;;;4.47;2.00;;;16.60;98.00;;;;;;5031216;28;20459;-66
2022/05/20 03:32:17;;;;;;;2.80;1.90;;;16.70;98.00;;;;;;5031378;28;20463;-65
2022/05/20 03:34:44;;;;;;;2.30;1.83;;;16.70;98.00;;;;;;5031126;28;20554;-65
2022/05/20 03:37:11;;;;;;;2.80;1.97;;;16.70;98.00;;;;;;5031421;28;20462;-66
2022/05/20 03:39:38;;;;;;;3.17;2.10;;;16.70;98.00;;;;;;5031215;28;20459;-66
2022/05/20 03:42:06;;;;;;;3.30;2.20;;;16.70;98.00;;;;;;5031455;28;20490;-65
2022/05/20 03:44:34;;;;;;;2.93;2.30;;;16.60;98.00;;;;;;5031043;28;20455;-65
2022/05/20 03:47:03;;;;;;;3.40;2.37;;;16.60;98.00;;;;;;5031037;28;20458;-66
2022/05/20 03:49:31;;;;;;;2.10;1.63;;;16.50;98.00;;;;;;5030737;28;20558;-65
2022/05/20 03:51:59;;;;;;;2.57;1.90;;;16.40;98.00;;;;;;5031073;28;20941;-65
2022/05/20 03:54:30;;;;;;;2.53;1.70;;;16.50;98.00;;;;;;5030695;28;20465;-65
2022/05/20 03:56:57;;;;;;;2.17;1.87;;;16.60;98.00;;;;;;5031100;28;20920;-65
2022/05/20 03:59:24;;;;;;;2.03;1.80;;;16.60;98.00;;;;;;5030736;28;20520;-66
2022/05/20 04:01:56;;;;;;;2.13;1.70;;;16.70;98.00;;;;;;5030721;28;20493;-65
2022/05/20 04:04:27;;;;;;;3.90;2.40;;;16.90;98.00;;;;;;5014870;28;20504;-65
2022/05/20 04:06:54;;;;;;;2.53;2.00;;;17.00;98.00;;;;;;5034860;28;20534;-66
2022/05/20 04:09:21;;;;;;;1.60;1.60;;;17.00;98.00;;;;;;5034938;28;20454;-65
2022/05/20 04:11:52;;;;;;;2.83;1.97;;;17.10;98.00;;;;;;5034587;28;20537;-65
2022/05/20 04:14:19;;;;;;;2.90;2.33;;;17.10;98.00;;;;;;5034517;28;20501;-65
2022/05/20 04:16:46;;;;;;;2.27;1.87;;;17.10;98.00;;;;;;5034687;28;20461;-65
2022/05/20 04:19:14;;;;;;;2.10;1.90;;;17.00;98.00;;;;;;5034509;28;20466;-65
2022/05/20 04:21:45;;;;;;;2.47;2.10;;;16.90;98.00;;;;;;5017117;28;20877;-65
2022/05/20 04:24:12;;;;;;;7.00;3.07;;;16.90;98.00;;;;;;5034468;28;20458;-65
2022/05/20 04:26:40;;;;;;;1.77;1.67;;;17.00;98.00;;;;;;5016855;28;20985;-65
2022/05/20 04:29:07;;;;;;;2.77;1.67;;;17.00;98.00;;;;;;5034602;28;20510;-66
2022/05/20 04:31:34;;;;;;;2.53;1.93;;;16.90;98.00;;;;;;5034605;28;20466;-66
2022/05/20 04:34:01;;;;;;;2.80;1.80;;;17.00;98.00;;;;;;5034299;28;20494;-66
2022/05/20 04:36:28;;;;;;;3.20;2.37;;;17.10;98.00;;;;;;5034264;28;20458;-65
2022/05/20 04:38:57;;;;;;;4.60;2.20;;;17.30;98.00;;;;;;5034364;28;20957;-65
2022/05/20 04:47:00;;;;;;;3.23;1.93;;;17.40;98.00;;;;;;5019302;28;20492;-65
2022/05/20 04:49:28;;;;;;;3.50;2.43;;;17.50;98.00;;;;;;5033946;28;20473;-66
2022/05/20 04:51:55;;;;;;;2.80;1.67;;;17.50;98.00;;;;;;5033921;28;20458;-66
2022/05/20 04:57:09;;;;;;;3.40;2.13;;;17.70;98.00;;;;;;5034005;28;20438;-66
2022/05/20 04:59:38;;;;;;;4.70;2.23;;;17.80;98.00;;;;;;5033365;28;21014;-66
2022/05/20 05:02:07;;;;;;;2.13;1.70;;;17.70;98.00;;;;;;5033782;28;20854;-65
2022/05/20 05:04:34;;;;;;;2.93;2.10;;;17.60;98.00;;;;;;5033546;28;20886;-65
2022/05/20 05:07:01;;;;;;;2.70;1.83;;;17.50;98.00;;;;;;5033664;28;20455;-65
2022/05/20 05:09:30;;;;;;;4.30;2.07;;;17.60;98.00;;;;;;5033507;28;20505;-66
2022/05/20 05:11:58;;;;;;;4.77;2.23;;;17.70;98.00;;;;;;5033701;28;20478;-66
2022/05/20 05:14:25;;;;;;;2.90;1.97;;;17.80;98.00;;;;;;5033495;28;20826;-65
2022/05/20 05:16:52;;;;;;;2.00;1.80;;;17.80;98.00;;;;;;5033012;28;20807;-65
2022/05/20 05:19:19;;;;;;;3.33;2.50;;;17.80;98.00;;;;;;5033395;28;20454;-65
2022/05/20 05:21:46;;;;;;;5.00;2.13;;;17.70;98.00;;;;;;5015842;28;20514;-66
2022/05/20 05:24:13;;;;;;;6.27;2.77;;;17.70;98.00;;;;;;5033258;28;21083;-65
2022/05/20 05:26:42;;;;;;;2.40;2.20;;;17.60;98.00;;;;;;5033601;28;20459;-66
2022/05/20 05:29:11;;;;;;;2.47;1.70;;;17.60;98.00;;;;;;5033196;28;20498;-65
2022/05/20 05:31:38;;;;;;;3.20;2.67;;;17.70;98.00;;;;;;5033297;28;20462;-65
2022/05/20 05:34:05;;;;;;;3.70;2.50;;;17.70;98.00;;;;;;5033288;28;20861;-65
2022/05/20 05:36:32;;;;;;;3.00;2.50;;;17.70;98.00;;;;;;5015693;28;20509;-66
2022/05/20 05:38:59;;;;;;;3.27;2.10;;;17.80;98.00;;;;;;5033016;28;20467;-66
2022/05/20 05:41:26;;;;;;;2.93;2.37;;;17.90;98.00;;;;;;5033466;28;20880;-66
2022/05/20 05:43:55;;;;;;;3.57;2.50;;;18.10;98.00;;;;;;5033572;28;20882;-66
2022/05/20 05:46:22;;;;;;;2.40;2.30;;;18.30;98.00;;;;;;5033824;28;20478;-65
2022/05/20 05:48:49;;;;;;;3.07;2.20;;;18.30;98.00;;;;;;5033164;28;20544;-66
2022/05/20 05:51:16;;;;;;;3.33;1.93;;;18.40;98.00;;;;;;5032873;28;20470;-65
2022/05/20 05:53:44;;;;;;;3.87;2.40;;;18.40;98.00;;;;;;5032778;28;21111;-65
2022/05/20 05:56:11;;;;;;;4.03;2.67;;;18.60;98.00;;;;;;5032859;28;20462;-65
2022/05/20 05:58:38;;;;;;;3.83;2.80;;;18.60;98.00;;;;;;5032684;28;20858;-66
2022/05/20 06:01:07;;;;;;;3.10;2.70;;;18.60;98.00;;;;;;5032792;28;20577;-65
2022/05/20 06:03:36;;;;;;;3.37;2.50;;;18.60;98.00;;;;;;5032573;28;20490;-62
2022/05/20 06:06:03;;;;;;;2.83;2.03;;;18.50;98.00;;;;;;5032595;28;20532;-62
2022/05/20 06:08:30;;;;;;;3.43;2.63;;;18.60;98.00;;;;;;5032370;28;20886;-62
2022/05/20 06:10:57;;;;;;;2.80;2.10;;;18.70;98.00;;;;;;5032346;28;20461;-62
2022/05/20 06:13:25;;;;;;;4.13;2.80;;;18.80;98.00;;;;;;5032469;28;20477;-62
2022/05/20 06:15:55;;;;;;;3.60;2.20;;;18.80;98.00;;;;;;5032460;28;20451;-62
2022/05/20 06:18:24;;;;;;;3.03;2.40;;;18.90;98.00;;;;;;5032263;28;20454;-62
2022/05/20 06:20:52;;;;;;;3.33;2.23;;;19.00;98.00;;;;;;5032189;28;20455;-62
2022/05/20 06:23:19;;;;;;;5.17;2.90;;;19.10;98.00;;;;;;5032278;28;20451;-62
2022/05/20 06:25:47;;;;;;;2.97;2.23;;;19.00;98.00;;;;;;5032487;28;20466;-62
2022/05/20 06:28:16;;;;;;;3.10;2.03;;;19.10;98.00;;;;;;5014000;28;20853;-61
2022/05/20 06:30:44;;;;;;;2.60;2.37;;;19.20;98.00;;;;;;5032104;28;20855;-62
2022/05/20 06:33:12;;;;;;;4.47;2.80;;;19.30;98.00;;;;;;5032184;28;20501;-61
2022/05/20 06:41:10;;;;;;;3.17;2.20;;;19.40;98.00;;;;;;5032263;28;20453;-61
2022/05/20 06:43:38;;;;;;;3.60;2.70;;;19.50;98.00;;;;;;5031946;28;20512;-61
2022/05/20 06:46:05;;;;;;;3.60;2.60;;;19.70;98.00;;;;;;5031965;28;20542;-61
2022/05/20 06:48:43;;;;;;;2.00;1.77;;;19.80;98.00;;;;;;5031648;28;20459;-61
2022/05/20 06:51:13;;;;;;;5.97;2.73;;;19.90;98.00;;;;;;5031901;28;20470;-61
2022/05/20 06:53:40;;;;;;;4.20;2.47;;;20.00;98.00;;;;;;5031837;28;20458;-62
2022/05/20 06:56:08;;;;;;;3.50;2.00;;;20.10;98.00;;;;;;5031733;28;20461;-62
2022/05/20 06:58:35;;;;;;;3.53;2.23;;;20.10;98.00;;;;;;5031187;28;20462;-61
2022/05/20 07:01:03;;;;;;;3.10;2.27;;;20.20;98.00;;;;;;5031426;28;20470;-61
2022/05/20 07:03:31;;;;;;;2.13;2.03;;;20.30;98.00;;;;;;5031489;28;20468;-62
2022/05/20 07:05:58;;;;;;;2.63;2.37;;;20.40;98.00;;;;;;5031524;28;20462;-61
2022/05/20 07:08:27;;;;;;;3.23;2.50;;;20.50;98.00;;;;;;5031296;28;20956;-61
2022/05/20 07:10:56;;;;;;;2.80;2.23;;;20.60;98.00;;;;;;5031611;28;20458;-61
2022/05/20 07:13:23;;;;;;;2.67;2.00;;;20.70;98.00;;;;;;5031522;28;20686;-61
2022/05/20 07:15:58;;;;;;;2.30;2.00;;;20.80;98.00;;;;;;5031391;28;20454;-62
2022/05/20 07:18:25;;;;;;;2.90;2.50;;;20.90;98.00;;;;;;5031413;28;20454;-61
2022/05/20 07:20:52;;;;;;;2.70;2.40;;;21.00;98.00;;;;;;5031646;28;20461;-61
2022/05/20 07:23:22;;;;;;;2.70;2.03;;;21.10;98.00;;;;;;5031498;28;20489;-61
2022/05/20 07:25:51;;;;;;;4.00;2.87;;;21.20;98.00;;;;;;5031212;28;20458;-62
2022/05/20 07:28:18;;;;;;;5.40;2.83;;;21.30;98.00;;;;;;5031332;28;20462;-62
2022/05/20 07:30:45;;;;;;;2.50;2.30;;;21.50;98.00;;;;;;5031398;28;20461;-61
2022/05/20 07:33:13;;;;;;;2.97;2.20;;;21.70;98.00;;;;;;5028595;28;20862;-61
2022/05/20 07:35:40;;;;;;;3.77;2.33;;;21.80;98.00;;;;;;5028570;28;20494;-62
2022/05/20 07:38:08;;;;;;;3.13;2.63;;;21.90;98.00;;;;;;5029940;28;20512;-63
2022/05/20 07:40:36;;;;;;;4.43;2.43;;;22.00;98.00;;;;;;5035298;28;20509;-63
2022/05/20 07:43:04;;;;;;;3.67;2.70;;;22.00;98.00;;;;;;5035402;28;20508;-62
2022/05/20 07:45:31;;;;;;;2.90;2.00;;;22.10;98.00;;;;;;5036047;28;20457;-60
2022/05/20 07:47:58;;;;;;;3.10;2.40;;;22.10;98.00;;;;;;5037243;28;20876;-64
2022/05/20 07:50:25;;;;;;;7.03;2.80;;;22.40;98.00;;;;;;5037463;28;20820;-64
2022/05/20 07:55:43;;;;;;;3.37;2.43;;;22.60;98.00;;;;;;5037696;28;20457;-64
2022/05/20 07:58:13;;;;;;;3.30;2.50;;;22.70;98.00;;;;;;5037542;28;20565;-62
2022/05/20 08:00:41;;;;;;;5.43;3.50;;;22.80;98.00;;;;;;5037303;28;20901;-62
2022/05/20 08:03:09;;;;;;;3.30;2.47;;;22.90;98.00;;;;;;5037086;28;20565;-62
2022/05/20 08:05:35;;;;;;;4.77;2.67;;;23.00;98.00;;;;;;5037259;28;20466;-62
2022/05/20 08:08:05;;;;;;;4.97;2.60;;;23.10;98.00;;;;;;5037271;28;21043;-62
2022/05/20 08:10:35;;;;;;;2.83;2.40;;;23.20;98.00;;;;;;5037445;28;20458;-62
2022/05/20 08:13:03;;;;;;;4.40;2.97;;;23.40;98.00;;;;;;5020207;28;20449;-62
2022/05/20 08:15:36;;;;;;;4.30;2.83;;;23.70;98.00;;;;;;5037455;28;20481;-62
2022/05/20 08:18:03;;;;;;;4.63;2.80;;;23.80;98.00;;;;;;5036854;28;20960;-62
2022/05/20 08:20:31;;;;;;;4.37;2.77;;;23.80;98.00;;;;;;5037565;28;20459;-62
2022/05/20 08:23:00;;;;;;;4.93;3.50;;;23.90;98.00;;;;;;5020143;28;20482;-62
2022/05/20 08:25:29;;;;;;;4.50;2.97;;;24.00;98.00;;;;;;5037289;28;20541;-62
2022/05/20 08:27:56;;;;;;;3.70;2.77;;;24.10;98.00;;;;;;5037453;28;20465;-62
2022/05/20 08:30:26;;;;;;;3.20;2.40;;;24.10;98.00;;;;;;5037310;28;20462;-62
2022/05/20 08:32:55;;;;;;;4.33;3.20;;;24.30;98.00;;;;;;5037069;28;20454;-62
2022/05/20 08:35:23;;;;;;;3.30;2.60;;;24.50;98.00;;;;;;5037223;28;20827;-62
2022/05/20 08:37:52;;;;;;;3.87;2.93;;;24.60;98.00;;;;;;5037286;28;20450;-62
2022/05/20 08:40:23;;;;;;;4.33;3.33;;;24.60;98.00;;;;;;5020027;28;20531;-62
2022/05/20 08:42:51;;;;;;;4.47;2.63;;;24.80;98.00;;;;;;5037553;28;20579;-62
2022/05/20 08:45:26;;;;;;;3.83;2.77;;;24.90;98.00;;;;;;5037452;28;20462;-62
2022/05/20 08:47:55;;;;;;;4.13;3.00;;;25.00;98.00;;;;;;5037203;28;20462;-62
2022/05/20 08:50:27;;;;;;;5.10;2.70;;;25.10;98.00;;;;;;5035179;28;20827;-62
2022/05/20 08:52:57;;;;;;;4.80;2.87;;;25.30;98.00;;;;;;5033923;28;20453;-62
2022/05/20 08:55:25;;;;;;;4.43;2.97;;;25.50;98.00;;;;;;5034085;28;20462;-62
2022/05/20 08:57:56;;;;;;;4.47;2.83;;;25.60;98.00;;;;;;5033745;28;20461;-62
2022/05/20 09:00:23;;;;;;;6.40;3.27;;;25.80;98.00;;;;;;5033816;28;20474;-62
2022/05/20 09:02:50;;;;;;;4.03;2.70;;;26.00;98.00;;;;;;5033786;28;20594;-62
2022/05/20 09:05:22;;;;;;;3.90;2.60;;;26.30;98.00;;;;;;5033814;28;20459;-62
2022/05/20 09:08:02;;;;;;;4.50;3.17;;;26.40;98.00;;;;;;5033821;28;20459;-62
2022/05/20 09:10:35;;;;;;;3.70;2.63;;;26.50;98.00;;;;;;5033896;28;20546;-62
2022/05/20 09:13:09;;;;;;;4.67;3.03;;;26.70;98.00;;;;;;5033675;28;20953;-62
2022/05/20 09:15:44;;;;;;;5.40;3.17;;;26.80;98.00;;;;;;5033578;28;20470;-62
2022/05/20 09:18:17;;;;;;;4.00;2.93;;;26.90;98.00;;;;;;5033441;28;20545;-62
2022/05/20 09:20:48;;;;;;;4.10;2.93;;;27.10;98.00;;;;;;5033491;28;20867;-62
2022/05/20 09:23:20;;;;;;;3.37;2.50;;;27.20;98.00;;;;;;5033476;28;20482;-62
2022/05/20 09:25:56;;;;;;;3.30;2.30;;;27.30;98.00;;;;;;5033575;28;20537;-62
2022/05/20 09:28:31;;;;;;;5.03;2.80;;;27.30;97.60;;;;;;5033386;28;20458;-62
2022/05/20 09:31:07;;;;;;;4.00;2.80;;;27.40;98.00;;;;;;5033309;28;20498;-62
2022/05/20 09:33:37;;;;;;;4.90;2.70;;;27.50;98.00;;;;;;5033224;28;20462;-63
2022/05/20 09:36:07;;;;;;;4.10;2.87;;;27.60;97.00;;;;;;5033375;28;20513;-62
2022/05/20 09:38:37;;;;;;;4.10;2.70;;;27.80;97.20;;;;;;5033352;28;20492;-62
2022/05/20 09:41:12;;;;;;;5.10;2.97;;;28.00;95.80;;;;;;5033219;28;20462;-62
2022/05/20 09:43:42;;;;;;;4.80;2.87;;;28.00;92.70;;;;;;5033228;28;20516;-63
2022/05/20 09:46:29;;;;;;;4.87;2.60;;;28.10;91.30;;;;;;5033222;28;20459;-62
2022/05/20 09:49:03;;;;;;;3.53;2.83;;;28.20;88.70;;;;;;5033127;28;20554;-62
2022/05/20 09:51:38;;;;;;;4.57;2.63;;;28.30;90.20;;;;;;5032886;28;20449;-62
2022/05/20 09:54:14;;;;;;;3.67;2.60;;;28.30;85.20;;;;;;5032792;28;20454;-63
2022/05/20 09:56:45;;;;;;;3.40;2.60;;;28.40;88.30;;;;;;5032716;28;20466;-62
2022/05/20 09:59:26;;;;;;;3.40;2.80;;;28.60;87.20;;;;;;5032960;28;20990;-62
2022/05/20 10:02:00;;;;;;;3.93;2.50;;;28.60;86.40;;;;;;5031042;28;20549;-62
2022/05/20 10:04:52;;;;;;;4.67;2.73;;;28.80;88.00;;;;;;5015205;28;20511;-61
2022/05/20 10:07:42;;;;;;;3.43;2.23;;;29.00;88.40;;;;;;5026594;28;20487;-61
2022/05/20 10:10:33;;;;;;;5.20;2.77;;;29.00;85.50;;;;;;5031572;28;20451;-61
2022/05/20 10:13:03;;;;;;;3.00;2.57;;;29.10;83.80;;;;;;5032058;28;20533;-61
2022/05/20 10:15:39;;;;;;;3.80;2.60;;;29.10;84.70;;;;;;5033382;28;20859;-61
2022/05/20 10:18:18;;;;;;;3.13;2.77;;;29.20;86.90;;;;;;5033109;28;20458;-61
2022/05/20 10:20:56;;;;;;;5.03;2.70;;;29.30;88.30;;;;;;5033322;28;20446;-61
2022/05/20 10:23:33;;;;;;;4.03;2.70;;;29.40;84.00;;;;;;5033120;28;20486;-61
2022/05/20 10:26:09;;;;;;;4.07;2.73;;;29.50;83.30;;;;;;5033214;28;20463;-61
2022/05/20 10:34:26;;;;;;;3.43;2.67;;;29.80;80.10;;;;;;5032651;28;20446;-61
2022/05/20 10:37:00;;;;;;;4.33;2.60;;;30.10;80.30;;;;;;5032664;28;20458;-61
2022/05/20 10:39:57;;;;;;;3.87;2.50;;;30.20;79.00;;;;;;5032468;28;20464;-61
2022/05/20 10:42:49;;;;;;;4.43;3.07;;;30.40;79.70;;;;;;5032541;28;20465;-61
2022/05/20 10:48:58;;;;;;;4.43;2.90;;;30.70;81.20;;;;;;5032247;28;20450;-61
2022/05/20 10:51:50;;;;;;;3.20;2.50;;;30.90;81.90;;;;;;4952096;29;20460;-62
2022/05/20 10:54:59;;;;;;;2.90;2.40;;;31.00;79.80;;;;;;5030034;28;20959;-62
2022/05/20 10:57:53;;;;;;;6.03;2.57;;;31.00;76.70;;;;;;5017752;28;20555;-62
2022/05/20 11:00:22;;;;;;;4.00;2.50;;;31.00;76.00;;;;;;5031978;28;20462;-61
2022/05/20 11:03:18;;;;;;;3.50;2.60;;;31.20;77.10;;;;;;5032012;28;20589;-62
2022/05/20 11:06:11;;;;;;;3.93;2.30;;;31.20;75.60;;;;;;5032069;28;20459;-62
2022/05/20 11:08:53;;;;;;;4.07;2.80;;;30.80;76.30;;;;;;5021484;28;20459;-61
2022/05/20 11:11:50;;;;;;;3.63;2.50;;;30.80;75.40;;;;;;5031869;28;20505;-62
2022/05/20 11:14:59;;;;;;;3.07;2.43;;;31.10;76.50;;;;;;5031701;28;20804;-61
2022/05/20 11:17:56;;;;;;;2.90;2.30;;;31.30;74.90;;;;;;4996660;28;20565;-62
2022/05/20 11:20:46;;;;;;;3.50;2.50;;;31.70;74.20;;;;;;4996084;28;20805;-61
2022/05/20 11:23:32;;;;;;;3.20;2.10;;;32.10;76.30;;;;;;5031754;28;20490;-61
2022/05/20 11:26:27;;;;;;;2.90;2.57;;;32.20;77.50;;;;;;5032113;28;20466;-61
2022/05/20 11:29:27;;;;;;;3.70;2.70;;;32.20;74.30;;;;;;5022416;28;20980;-61
2022/05/20 11:31:57;;;;;;;2.97;2.50;;;32.60;74.10;;;;;;5031946;28;20797;-61
2022/05/20 11:34:52;;;;;;;5.90;3.07;;;32.70;71.40;;;;;;5032075;28;20459;-61
2022/05/20 11:37:40;;;;;;;7.13;2.50;;;32.80;71.90;;;;;;5018675;28;20512;-62
2022/05/20 11:40:41;;;;;;;3.93;2.50;;;32.80;74.50;;;;;;5014359;28;20459;-62
2022/05/20 11:43:36;;;;;;;3.73;2.33;;;32.70;70.60;;;;;;5012120;28;20486;-62
2022/05/20 11:46:18;;;;;;;4.80;2.90;;;32.90;68.70;;;;;;5014395;28;20459;-63
2022/05/20 11:49:14;;;;;;;4.47;2.77;;;32.80;68.80;;;;;;5031333;28;20461;-63
2022/05/20 11:52:12;;;;;;;3.43;2.60;;;32.90;70.40;;;;;;5031654;28;20459;-63
2022/05/20 11:54:47;;;;;;;4.30;2.30;;;33.10;70.10;;;;;;5031555;28;20455;-63
2022/05/20 11:57:19;;;;;;;3.93;2.60;;;33.20;69.20;;;;;;5031686;28;20527;-63
2022/05/20 11:59:52;;;;;;;4.67;2.80;;;33.30;70.90;;;;;;5031411;28;20458;-63
2022/05/20 12:02:22;;;;;;;3.93;2.57;;;33.40;68.80;;;;;;5031356;28;20481;-63
2022/05/20 12:04:51;;;;;;;6.20;2.70;;;33.50;69.70;;;;;;5031419;28;20512;-63
2022/05/20 12:07:20;;;;;;;4.43;2.60;;;33.80;71.00;;;;;;5031370;28;20455;-63
2022/05/20 12:09:49;;;;;;;4.60;2.90;;;33.80;69.30;;;;;;5031516;28;20462;-63
2022/05/20 12:12:28;;;;;;;3.60;2.60;;;33.90;69.70;;;;;;5031664;28;20904;-63
2022/05/20 12:15:38;;;;;;;3.90;2.43;;;34.00;70.40;;;;;;5031529;28;20458;-63
2022/05/20 12:24:11;;;;;;;3.53;2.50;;;34.00;66.80;;;;;;5031522;28;20469;-63
2022/05/20 12:24:30;;;;;;;5.10;2.90;;;34.10;66.70;;;;;;5031235;28;20558;-64
2022/05/20 12:26:59;;;;;;;4.37;2.70;;;34.30;66.70;;;;;;5031152;28;20470;-63
2022/05/20 12:30:00;;;;;;;2.80;2.27;;;34.30;66.00;;;;;;5032447;28;20478;-63
2022/05/20 12:32:51;;;;;;;3.50;2.53;;;34.30;66.80;;;;;;5027049;28;20466;-63
2022/05/20 12:35:24;;;;;;;5.40;3.67;;;34.40;68.30;;;;;;5026342;28;20469;-63
2022/05/20 12:38:23;;;;;;;4.50;2.90;;;34.50;70.30;;;;;;5032604;28;20458;-64
2022/05/20 12:41:03;;;;;;;4.03;2.70;;;34.80;66.30;;;;;;5025051;28;20466;-64
2022/05/20 12:43:55;;;;;;;6.13;2.80;;;34.90;66.10;;;;;;5031921;28;20490;-64
2022/05/20 12:46:53;;;;;;;4.03;2.57;;;34.90;67.00;;;;;;5032273;28;20462;-63
2022/05/20 12:49:22;;;;;;;7.97;2.70;;;34.80;67.10;;;;;;5029950;28;20537;-64
2022/05/20 12:51:52;;;;;;;3.53;2.37;;;34.70;67.00;;;;;;5032422;28;20475;-63
2022/05/20 12:54:24;;;;;;;4.47;2.40;;;34.60;64.20;;;;;;5032233;28;20463;-65
2022/05/20 12:56:57;;;;;;;3.50;2.27;;;34.70;67.10;;;;;;5024948;28;20459;-63
2022/05/20 12:59:25;;;;;;;3.80;2.37;;;34.80;63.60;;;;;;5034409;28;20458;-63
2022/05/20 13:01:58;;;;;;;3.20;2.40;;;34.80;64.80;;;;;;5034474;28;20502;-63
2022/05/20 13:04:29;;;;;;;3.10;2.20;;;34.90;67.60;;;;;;5033940;28;20577;-63
2022/05/20 13:07:16;;;;;;;2.77;2.17;;;35.10;66.60;;;;;;5033668;28;20849;-63
2022/05/20 13:09:44;;;;;;;3.47;2.70;;;35.30;65.50;;;;;;5033645;28;20883;-63
2022/05/20 13:12:18;;;;;;;3.73;2.63;;;35.50;64.90;;;;;;5033830;28;20459;-63
2022/05/20 13:14:48;;;;;;;3.60;2.37;;;35.70;64.00;;;;;;5034085;28;20458;-63
2022/05/20 13:17:15;;;;;;;3.87;2.53;;;35.90;64.10;;;;;;5033196;28;20465;-63
2022/05/20 13:19:46;;;;;;;3.13;2.30;;;35.90;65.90;;;;;;5029912;28;20459;-63
2022/05/20 13:22:17;;;;;;;3.70;2.40;;;35.80;63.00;;;;;;5033237;28;20887;-63
2022/05/20 13:24:45;;;;;;;2.70;2.33;;;35.70;62.80;;;;;;5031471;28;20524;-63
2022/05/20 13:27:14;;;;;;;3.33;2.53;;;35.60;62.10;;;;;;5027933;28;20950;-63
2022/05/20 13:29:44;;;;;;;2.73;2.23;;;35.60;65.30;;;;;;5025941;28;20954;-64
2022/05/20 13:32:27;;;;;;;5.60;3.03;;;35.80;63.70;;;;;;5033137;28;20462;-64
2022/05/20 13:34:56;;;;;;;3.07;2.40;;;35.90;63.40;;;;;;5025022;28;20860;-64
2022/05/20 13:37:29;;;;;;;3.00;2.30;;;36.10;64.00;;;;;;5025914;28;20486;-64
2022/05/20 13:40:01;;;;;;;4.57;2.50;;;36.30;67.60;;;;;;5032874;28;20502;-63
2022/05/20 13:42:33;;;;;;;2.83;2.30;;;36.40;61.70;;;;;;5030043;28;20470;-64
2022/05/20 13:45:10;;;;;;;3.67;2.60;;;36.40;64.20;;;;;;5021295;28;20518;-64
2022/05/20 13:50:27;;;;;;;3.77;2.70;;;36.00;64.50;;;;;;5025866;28;21043;-64
2022/05/20 13:52:58;;;;;;;4.00;2.50;;;36.20;64.10;;;;;;5030584;28;20465;-64
2022/05/20 13:55:34;;;;;;;4.10;2.70;;;36.20;62.40;;;;;;5025136;28;20868;-63